Arcadia, Florida
Current Conditions -  °F | °C
As of 12:53 AM on Thursday 23 Oct 2014 (Local Time) from KPGD Reporting Station
Few Clouds Few Clouds  
Wind Chill: 22°   Ceiling: Unl
Heat Index: 22°   Visibility: 10mi
Dew Point: 19°   Wind: 9mph
Humidity: 81%   Direction: 50°NE
Pressure: 29.97"   Gusts: NA
Location:  27.22°N, 81.86°W
Report Text: KPGD 230453Z AUTO 05008KT 10SM FEW036 22/19 A2997 RMK AO2 SLP148 T02220189 402940211
Loading
Personal Weather Stations






























Interactive Weather Map
Tropical Storm Tracking
New forecast layout! Learn more

10-Day Weather Forecast

Advertisements
Track Severe Weather on mobile